Portada
METAR-TAF:

METAR-TAF

Aeroports :

Dübendorf, Suïssa

latitud: 47-23-55N, longitud: 8-38-53E, altitud: 448 m

Observació

L'informe es va fer fa 37 minuts, a les 09:50 UTC
Vent 3 kt del Nord/Nord-Est, variant entre Oest/Nord-Oest i Est
Temperatura 27°C
Humitat 58%
Pressió 1022 hPa
Visibilitat 10 km o més
sense núvols per sota de 1500 mi sense presència de cumulonimbus.

METAR: LSMD 230950Z 03003KT 300V090 CAVOK 27/18 Q1022 RMK BLU

Hora: 12:27 (10:27 UTC)


TAF: manca

Observacions i pronòstics meteorològics de més de 4000 aeroports (METAR i TAF).

Les estacions disponibles són els punts grocs i vermells al mapa.

Posi el ratolí al punt desitjat per veure el nom de l'estació.

Feu clic per veure les observacions i els pronòstics meteorològics.

Per canviar el mapa: feu clic els botons verds amb una creu de color negre per apropar; al botó verd amb un guió per allunyar la imatge; o en les fletxes verdes per a mapes adjacents.


METAR-TAF: